Data for 10/28/2009

Time Sea-Level Adjusted Pressure Absolute Pressure Temperature Relative Humidity Dew Point   
(mb) (inHg) (mb) (inHg) (C) (F) (%) (C) (F)
00:05 1013 29.91 842 24.86 -2.1 28.2 93 -3.2 26.3
00:10 1013 29.91 842 24.86 -2.1 28.2 92 -3.2 26.2
00:15 1013 29.91 842 24.86 -2 28.4 92 -3.1 26.3
00:20 1013 29.91 842 24.86 -2 28.3 93 -3.1 26.4
00:25 1012 29.88 842 24.86 -2.1 28.2 93 -3.1 26.4
00:30 1012 29.88 842 24.86 -2.1 28.2 93 -3.1 26.5
00:35 1012 29.88 842 24.86 -2.2 28.1 94 -3 26.6
00:40 1013 29.91 842 24.86 -2.2 28 94 -3.1 26.5
00:45 1013 29.91 842 24.86 -2.2 28 94 -3 26.5
00:50 1013 29.91 842 24.86 -2.2 28 95 -2.9 26.7
00:55 1013 29.91 842 24.86 -2.3 27.9 95 -3 26.7
01:00 1013 29.91 842 24.86 -2.3 27.9 95 -2.9 26.7
01:05 1013 29.91 842 24.86 -2.3 27.8 96 -2.9 26.7
01:10 1013 29.91 842 24.86 -2.4 27.7 96 -2.9 26.7
01:15 1013 29.91 842 24.86 -2.3 27.9 95 -2.9 26.7
01:20 1013 29.91 842 24.86 -2.3 27.9 96 -2.9 26.7
01:25 1013 29.91 842 24.86 -2.3 27.9 96 -2.9 26.9
01:30 1013 29.91 842 24.86 -2.2 28 96 -2.8 27
01:35 1013 29.91 842 24.86 -2.2 28 96 -2.8 27
01:40 1013 29.91 842 24.86 -2.4 27.8 96 -2.9 26.8
01:45 1013 29.91 842 24.86 -2.4 27.6 97 -2.9 26.7
01:50 1013 29.91 842 24.86 -2.5 27.6 97 -2.9 26.7
01:55 1013 29.91 842 24.86 -2.4 27.6 97 -2.9 26.8
02:00 1013 29.91 842 24.86 -2.4 27.6 97 -2.9 26.9
02:05 1013 29.91 842 24.86 -2.4 27.6 97 -2.8 26.9
02:10 1013 29.91 842 24.86 -2.5 27.6 97 -2.9 26.8
02:15 1013 29.91 842 24.86 -2.5 27.5 97 -2.9 26.8
02:20 1013 29.91 842 24.86 -2.5 27.5 97 -2.9 26.8
02:25 1013 29.91 842 24.86 -2.5 27.5 97 -2.9 26.8
02:30 1013 29.91 842 24.86 -2.5 27.4 97 -3 26.7
02:35 1013 29.91 842 24.86 -2.6 27.3 97 -3 26.6
02:40 1013 29.91 842 24.86 -2.6 27.3 97 -3 26.6
02:45 1013 29.91 842 24.86 -2.6 27.4 97 -2.9 26.7
02:50 1013 29.91 842 24.86 -2.6 27.4 97 -3 26.7
02:55 1013 29.91 842 24.86 -2.6 27.4 97 -2.9 26.7
03:00 1013 29.91 842 24.86 -2.5 27.4 97 -2.9 26.8
03:05 1013 29.91 843 24.89 -2.5 27.4 97 -2.9 26.7
03:10 1013 29.91 842 24.86 -2.5 27.5 97 -2.9 26.7
03:15 1013 29.91 842 24.86 -2.5 27.5 97 -2.9 26.8
03:20 1013 29.91 843 24.89 -2.5 27.5 97 -2.9 26.8
03:25 1013 29.91 843 24.89 -2.5 27.5 97 -2.9 26.8
03:30 1013 29.91 843 24.89 -2.5 27.5 97 -2.8 26.9
03:35 1013 29.91 843 24.89 -2.4 27.6 97 -2.8 27
03:40 1013 29.91 843 24.89 -2.5 27.6 97 -2.9 26.8
03:45 1013 29.91 843 24.89 -2.5 27.5 97 -2.9 26.7
03:50 1013 29.91 843 24.89 -2.5 27.6 97 -2.9 26.8
03:55 1014 29.94 843 24.89 -2.5 27.6 96 -3 26.6
04:00 1014 29.94 843 24.89 -2.5 27.5 96 -3 26.5
04:05 1014 29.94 843 24.89 -2.5 27.6 96 -3.1 26.5
04:10 1014 29.94 843 24.89 -2.4 27.7 95 -3 26.5
04:15 1014 29.94 843 24.89 -2.4 27.7 95 -3 26.6
04:20 1014 29.94 843 24.89 -2.4 27.7 95 -3 26.5
04:25 1014 29.94 843 24.89 -2.4 27.7 95 -3 26.5
04:30 1014 29.94 843 24.89 -2.3 27.8 95 -3 26.6
04:35 1014 29.94 843 24.89 -2.3 27.8 95 -3.1 26.4
04:40 1014 29.94 843 24.89 -2.3 27.8 94 -3.2 26.3
04:45 1014 29.94 843 24.89 -2.3 27.8 94 -3.2 26.3
04:50 1014 29.94 843 24.89 -2.3 27.8 93 -3.2 26.2
04:55 1014 29.94 843 24.89 -2.3 27.8 93 -3.2 26.2
05:00 1014 29.94 843 24.89 -2.3 27.9 93 -3.3 26.1
05:05 1014 29.94 843 24.89 -2.3 27.8 93 -3.3 26
05:10 1014 29.94 843 24.89 -2.3 27.8 93 -3.4 25.9
05:15 1014 29.94 844 24.92 -2.3 27.8 92 -3.4 25.9
05:20 1014 29.94 844 24.92 -2.3 27.8 92 -3.4 25.8
05:25 1014 29.94 844 24.92 -2.4 27.8 92 -3.4 25.8
05:30 1014 29.94 844 24.92 -2.3 27.8 92 -3.4 25.9
05:35 1015 29.97 844 24.92 -2.4 27.8 92 -3.4 25.8
05:40 1015 29.97 844 24.92 -2.4 27.7 93 -3.5 25.8
05:45 1015 29.97 844 24.92 -2.4 27.6 93 -3.5 25.7
05:50 1015 29.97 844 24.92 -2.5 27.5 92 -3.6 25.5
05:55 1015 29.97 844 24.92 -2.4 27.6 91 -3.6 25.4
06:00 1015 29.97 844 24.92 -2.4 27.7 91 -3.6 25.5
06:05 1015 29.97 844 24.92 -2.6 27.4 91 -3.9 25
06:10 1015 29.97 844 24.92 -2.7 27.1 91 -4 24.9
06:15 1015 29.97 844 24.92 -2.8 27 91 -4.1 24.6
06:20 1015 29.97 844 24.92 -2.7 27.1 90 -4.1 24.5
06:25 1015 29.97 844 24.92 -2.6 27.3 89 -4.2 24.5
06:30 1015 29.97 844 24.92 -2.6 27.4 89 -4.1 24.6
06:35 1015 29.97 844 24.92 -2.5 27.4 90 -4 24.7
06:40 1015 29.97 844 24.92 -2.5 27.5 89 -4 24.7
06:45 1015 29.97 844 24.92 -2.4 27.8 89 -3.9 25
06:50 1015 29.97 844 24.92 -2.4 27.7 89 -4 24.8
06:55 1015 29.97 845 24.95 -2.4 27.6 89 -4.1 24.6
07:00 1015 29.97 845 24.95 -2.4 27.6 87 -4.2 24.4
07:05 1015 29.97 845 24.95 -2.4 27.7 88 -4.1 24.5
07:10 1015 29.97 845 24.95 -2.4 27.7 88 -4.1 24.7
07:15 1015 29.97 845 24.95 -2.4 27.7 89 -4 24.8
07:20 1015 29.97 845 24.95 -2.4 27.7 88 -4.2 24.4
07:25 1015 29.97 845 24.95 -2.5 27.5 89 -4.1 24.6
07:30 1015 29.97 845 24.95 -2.6 27.4 89 -4.2 24.4
07:35 1015 29.97 845 24.95 -2.8 27 90 -4.2 24.4
07:40 1016 30 845 24.95 -2.8 26.9 90 -4.3 24.3
07:45 1016 30 845 24.95 -2.9 26.9 90 -4.3 24.3
07:50 1016 30 845 24.95 -2.8 27 90 -4.3 24.3
07:55 1016 30 845 24.95 -2.7 27.1 89 -4.3 24.3
08:00 1016 30 845 24.95 -2.7 27.1 90 -4.2 24.5
08:05 1016 30 845 24.95 -2.6 27.4 89 -4.2 24.5
08:10 1016 30 845 24.95 -2.5 27.5 89 -4.1 24.6
08:15 1016 30 845 24.95 -2.3 27.8 88 -4.1 24.6
08:20 1016 30 845 24.95 -2.4 27.7 88 -4.1 24.5
08:25 1016 30 845 24.95 -2.4 27.6 87 -4.3 24.3
08:30 1016 30 845 24.95 -2.3 27.9 88 -4 24.7
08:35 1016 30 845 24.95 -2.5 27.5 89 -4.1 24.6
08:40 1016 30 845 24.95 -2.9 26.8 90 -4.3 24.3
08:45 1016 30 845 24.95 -2.8 27 90 -4.3 24.3
08:50 1016 30 845 24.95 -2.8 27 90 -4.1 24.6
08:55 1016 30 845 24.95 -2.8 26.9 91 -4.1 24.7
09:00 1016 30 845 24.95 -2.6 27.3 90 -4 24.9
09:05 1016 30 845 24.95 -2.2 28 88 -3.9 24.9
09:10 1016 30 845 24.95 -2.3 27.8 89 -3.9 25.1
09:15 1016 30 845 24.95 -2.6 27.3 91 -3.9 25
09:20 1016 30 845 24.95 -2.7 27.1 91 -4 24.9
09:25 1016 30 846 24.98 -2.6 27.3 91 -3.9 25
09:30 1016 30 846 24.98 -2.5 27.5 91 -3.8 25.2
09:35 1016 30 846 24.98 -2.5 27.6 91 -3.7 25.3
09:40 1016 30 846 24.98 -2.5 27.4 91 -3.8 25.2
09:45 1016 30 846 24.98 -2.5 27.5 91 -3.8 25.2
09:50 1016 30 846 24.98 -2.4 27.7 90 -3.9 25
09:55 1016 30 846 24.98 -2.2 28.1 89 -3.8 25.2
10:00 1016 30 846 24.98 -1.5 29.3 85 -3.7 25.4
10:05 1016 30 846 24.98 -0.8 30.5 82 -3.5 25.7
10:10 1016 30 846 24.98 -0.6 30.9 81 -3.4 25.8
10:15 1017 30.03 846 24.98 -0.1 31.8 77 -3.7 25.3
10:20 1017 30.03 846 24.98 -0.1 31.8 78 -3.6 25.6
10:25 1017 30.03 846 24.98 -0 32 77 -3.7 25.4
10:30 1017 30.03 846 24.98 0.2 32.4 76 -3.5 25.7
10:35 1017 30.03 846 24.98 0.1 32.1 76 -3.6 25.4
10:40 1017 30.03 846 24.98 -0.3 31.4 77 -3.9 25
10:45 1017 30.03 846 24.98 -0.1 31.7 75 -4 24.8
10:50 1017 30.03 846 24.98 -0.4 31.2 78 -3.8 25.2
10:55 1017 30.03 846 24.98 -0.4 31.3 77 -3.8 25.1
11:00 1017 30.03 846 24.98 -0.2 31.6 76 -3.9 25
11:05 1017 30.03 846 24.98 -0 31.9 77 -3.7 25.4
11:10 1017 30.03 846 24.98 0.1 32.2 73 -4.1 24.6
11:15 1017 30.03 846 24.98 0.1 32.1 72 -4.4 24.2
11:20 1017 30.03 846 24.98 -0 31.9 74 -4.1 24.6
11:25 1017 30.03 846 24.98 0.1 32.2 75 -3.8 25.1
11:30 1017 30.03 846 24.98 -0.5 31.1 79 -3.7 25.3
11:35 1017 30.03 846 24.98 -0.6 30.9 79 -3.8 25.2
11:40 1017 30.03 846 24.98 -0.5 31.1 79 -3.8 25.2
11:45 1017 30.03 846 24.98 -0.6 31 80 -3.6 25.4
11:50 1017 30.03 846 24.98 -0.6 30.8 80 -3.7 25.4
11:55 1017 30.03 846 24.98 -0.6 30.9 78 -4 24.8
12:00 1017 30.03 846 24.98 -0.8 30.5 78 -4.2 24.4
12:05 1017 30.03 846 24.98 -0.4 31.3 78 -3.8 25.1
12:10 1017 30.03 846 24.98 -0.6 30.9 76 -4.3 24.3
12:15 1017 30.03 846 24.98 -0.1 31.9 70 -4.8 23.3
12:20 1017 30.03 846 24.98 0.8 33.5 65 -5 23
12:25 1017 30.03 846 24.98 0.6 33 69 -4.4 24.1
12:30 1017 30.03 846 24.98 1.6 34.9 65 -4.2 24.4
12:35 1017 30.03 846 24.98 1.1 33.9 69 -4 24.8
12:40 1017 30.03 846 24.98 1.1 34 65 -4.7 23.6
12:45 1017 30.03 846 24.98 1.8 35.3 63 -4.4 24.1
12:50 1017 30.03 846 24.98 1.6 34.9 64 -4.4 24
12:55 1017 30.03 846 24.98 1.9 35.4 63 -4.3 24.2
13:00 1017 30.03 846 24.98 2 35.5 63 -4.2 24.4
13:05 1017 30.03 846 24.98 1 33.9 70 -3.8 25.1
13:10 1017 30.03 846 24.98 0.9 33.6 71 -3.7 25.3
13:15 1016 30 846 24.98 0.4 32.7 71 -4.3 24.3
13:20 1016 30 846 24.98 1.2 34.2 66 -4.4 24.1
13:25 1016 30 846 24.98 1.7 35 63 -4.6 23.7
13:30 1016 30 845 24.95 1.2 34.2 70 -3.7 25.3
13:35 1016 30 845 24.95 2 35.6 60 -4.9 23.2
13:40 1016 30 845 24.95 2.2 35.9 66 -3.5 25.7
13:45 1016 30 845 24.95 1.4 34.4 66 -4.4 24.1
13:50 1016 30 845 24.95 1.2 34.2 68 -4.1 24.6
13:55 1016 30 845 24.95 0.7 33.2 68 -4.7 23.6
14:00 1016 30 845 24.95 0.4 32.7 68 -4.9 23.2
14:05 1016 30 845 24.95 0.7 33.3 67 -4.7 23.5
14:10 1016 30 845 24.95 0.6 33.2 68 -4.6 23.7
14:15 1016 30 845 24.95 0.5 33 68 -4.8 23.4
14:20 1016 30 845 24.95 0.8 33.4 66 -4.8 23.3
14:25 1016 30 845 24.95 1.6 34.9 61 -5.1 22.8
14:30 1016 30 845 24.95 1.5 34.7 63 -4.7 23.5
14:35 1016 30 845 24.95 1.8 35.2 60 -5.2 22.7
14:40 1016 30 845 24.95 1.6 34.9 62 -4.9 23.2
14:45 1016 30 845 24.95 1.2 34.1 63 -5.2 22.6
14:50 1016 30 845 24.95 0.8 33.5 66 -4.9 23.2
14:55 1016 30 845 24.95 1.1 34.1 63 -5.2 22.7
15:00 1016 30 845 24.95 1.7 35.1 62 -4.8 23.4
15:05 1016 30 845 24.95 1.6 34.8 63 -4.8 23.4
15:10 1016 30 845 24.95 1.7 35 61 -5 23
15:15 1016 30 845 24.95 1.5 34.6 60 -5.4 22.3
15:20 1016 30 845 24.95 1.3 34.4 62 -5.2 22.6
15:25 1016 30 845 24.95 1.4 34.5 60 -5.4 22.2
15:30 1016 30 845 24.95 1 33.9 62 -5.3 22.4
15:35 1016 30 845 24.95 1.4 34.4 61 -5.4 22.2
15:40 1016 30 845 24.95 1.7 35 62 -4.8 23.3
15:45 1016 30 845 24.95 1.4 34.6 62 -5 22.9
15:50 1016 30 845 24.95 1.2 34.2 61 -5.4 22.2
15:55 1016 30 845 24.95 1.2 34.1 59 -5.9 21.4
16:00 1016 30 845 24.95 1.6 34.8 60 -5.3 22.4
16:05 1016 30 845 24.95 1.4 34.5 59 -5.8 21.5
16:10 1016 30 845 24.95 1.3 34.3 60 -5.5 22.1
16:15 1016 30 845 24.95 1.3 34.3 61 -5.5 22.1
16:20 1016 30 845 24.95 1.2 34.2 60 -5.7 21.7
16:25 1016 30 845 24.95 1.4 34.6 59 -5.8 21.6
16:30 1016 30 845 24.95 1.5 34.7 60 -5.6 22
16:35 1016 30 845 24.95 1.7 35 58 -5.6 21.9
16:40 1016 30 845 24.95 1.6 34.8 58 -5.8 21.5
16:45 1016 30 845 24.95 1.4 34.5 60 -5.5 22.1
16:50 1016 30 845 24.95 1.4 34.5 59 -5.8 21.6
16:55 1016 30 845 24.95 1 33.8 60 -5.9 21.5
17:00 1016 30 845 24.95 1 33.8 61 -5.7 21.7
17:05 1016 30 845 24.95 0.8 33.5 61 -5.9 21.4
17:10 1016 30 845 24.95 0.3 32.6 65 -5.4 22.3
17:15 1016 30 845 24.95 0.3 32.5 63 -5.8 21.5
17:20 1016 30 845 24.95 0.3 32.6 64 -5.8 21.6
17:25 1016 30 845 24.95 0.4 32.7 63 -5.8 21.5
17:30 1016 30 845 24.95 0.1 32.2 64 -6 21.2
17:35 1016 30 845 24.95 0.1 32.1 63 -6.2 20.9
17:40 1016 30 846 24.98 -0.2 31.6 65 -6.1 20.9
17:45 1016 30 846 24.98 -0.5 31.1 67 -5.9 21.3
17:50 1016 30 846 24.98 -0.8 30.6 68 -6 21.3
17:55 1016 30 846 24.98 -0.4 31.2 65 -6.1 20.9
18:00 1016 30 846 24.98 -0 31.9 61 -6.7 19.9
18:05 1017 30.03 846 24.98 -0.1 31.8 61 -6.8 19.8
18:10 1017 30.03 846 24.98 -0.1 31.9 62 -6.6 20.2
18:15 1017 30.03 846 24.98 -0.1 31.9 61 -6.7 20
18:20 1017 30.03 846 24.98 -0.2 31.7 62 -6.6 20.1
18:25 1017 30.03 846 24.98 -0.3 31.4 63 -6.6 20.1
18:30 1017 30.03 846 24.98 -0.3 31.4 64 -6.3 20.6
18:35 1017 30.03 846 24.98 -0.4 31.3 64 -6.3 20.7
18:40 1017 30.03 846 24.98 -0.4 31.2 65 -6.2 20.8
18:45 1017 30.03 846 24.98 -0.5 31 65 -6.4 20.5
18:50 1017 30.03 846 24.98 -0.8 30.6 66 -6.3 20.6
18:55 1017 30.03 846 24.98 -1.8 28.8 69 -6.8 19.8
19:00 1017 30.03 846 24.98 -2.4 27.7 70 -7.2 19.1
19:05 1017 30.03 846 24.98 -2.4 27.6 69 -7.3 18.8
19:10 1017 30.03 846 24.98 -2.7 27.1 76 -6.3 20.6
19:15 1017 30.03 846 24.98 -3.4 25.8 77 -6.9 19.6
19:20 1017 30.03 846 24.98 -3.4 25.9 77 -6.9 19.6
19:25 1017 30.03 846 24.98 -3.2 26.2 75 -7 19.3
19:30 1017 30.03 846 24.98 -3.2 26.3 75 -6.9 19.5
19:35 1017 30.03 846 24.98 -3 26.5 73 -7.1 19.2
19:40 1017 30.03 846 24.98 -2.8 27 75 -6.6 20.2
19:45 1017 30.03 846 24.98 -3.1 26.4 77 -6.6 20.1
19:50 1017 30.03 846 24.98 -3.2 26.2 77 -6.6 20.1
19:55 1017 30.03 846 24.98 -3.3 26.1 75 -7.1 19.3
20:00 1017 30.03 846 24.98 -3 26.6 73 -7.1 19.2
20:05 1017 30.03 846 24.98 -3.1 26.5 73 -7.2 19
20:10 1017 30.03 846 24.98 -3 26.6 68 -8.1 17.4
20:15 1017 30.03 847 25.01 -2.4 27.6 66 -8 17.6
20:20 1017 30.03 846 24.98 -2.6 27.3 67 -7.8 17.9
20:25 1017 30.03 847 25.01 -2.5 27.5 66 -7.9 17.7
20:30 1017 30.03 847 25.01 -2.7 27.1 69 -7.7 18.2
20:35 1017 30.03 847 25.01 -3 26.5 70 -7.7 18.1
20:40 1017 30.03 847 25.01 -3.4 25.9 72 -7.7 18.2
20:45 1017 30.03 846 24.98 -3.7 25.3 74 -7.7 18.1
20:50 1017 30.03 846 24.98 -4.1 24.6 75 -7.9 17.8
20:55 1017 30.03 846 24.98 -4.1 24.6 75 -8 17.6
21:00 1017 30.03 847 25.01 -4 24.7 75 -7.8 18
21:05 1017 30.03 847 25.01 -3.8 25.1 74 -7.8 18
21:10 1017 30.03 847 25.01 -3.6 25.5 74 -7.6 18.3
21:15 1017 30.03 847 25.01 -3.6 25.5 74 -7.6 18.3
21:20 1017 30.03 847 25.01 -3.6 25.4 75 -7.4 18.6
21:25 1018 30.06 847 25.01 -3.8 25.1 77 -7.4 18.8
21:30 1017 30.03 847 25.01 -4 24.8 77 -7.4 18.6
21:35 1018 30.06 847 25.01 -3.9 24.9 76 -7.5 18.5
21:40 1018 30.06 847 25.01 -3.8 25.2 76 -7.4 18.6
21:45 1018 30.06 847 25.01 -3.7 25.3 77 -7.2 19.1
21:50 1018 30.06 847 25.01 -3.8 25.1 77 -7.4 18.8
21:55 1018 30.06 847 25.01 -4 24.9 79 -7.2 19.1
22:00 1018 30.06 847 25.01 -4.1 24.7 78 -7.4 18.6
22:05 1018 30.06 847 25.01 -4.1 24.7 78 -7.3 18.8
22:10 1018 30.06 847 25.01 -4.3 24.3 79 -7.3 18.8
22:15 1018 30.06 847 25.01 -4.6 23.8 80 -7.4 18.6
22:20 1018 30.06 847 25.01 -4.9 23.2 82 -7.5 18.5
22:25 1018 30.06 847 25.01 -5.1 22.9 83 -7.5 18.4
22:30 1018 30.06 847 25.01 -5.2 22.7 83 -7.6 18.4
22:35 1018 30.06 847 25.01 -5.3 22.4 84 -7.6 18.3
22:40 1018 30.06 847 25.01 -5.4 22.3 85 -7.6 18.3
22:45 1018 30.06 847 25.01 -5.3 22.4 84 -7.6 18.4
22:50 1018 30.06 847 25.01 -5.3 22.5 84 -7.6 18.4
22:55 1018 30.06 847 25.01 -5.3 22.4 85 -7.6 18.4
23:00 1018 30.06 847 25.01 -5.3 22.4 84 -7.6 18.4
23:05 1018 30.06 847 25.01 -5.5 22.2 84 -7.7 18.2
23:10 1018 30.06 847 25.01 -5.6 21.8 85 -7.8 17.9
23:15 1018 30.06 847 25.01 -5.8 21.6 85 -7.9 17.8
23:20 1018 30.06 847 25.01 -5.7 21.8 85 -7.9 17.8
23:25 1018 30.06 847 25.01 -5.6 21.9 84 -7.9 17.8
23:30 1018 30.06 847 25.01 -5.7 21.7 84 -8 17.7
23:35 1018 30.06 847 25.01 -5.9 21.4 85 -8.1 17.4
23:40 1018 30.06 847 25.01 -5.7 21.7 83 -8.1 17.4
23:45 1018 30.06 847 25.01 -5.8 21.6 83 -8.3 17.1
23:50 1018 30.06 847 25.01 -5.7 21.7 82 -8.3 17.1
23:55 1018 30.06 847 25.01 -5.9 21.4 81 -8.6 16.6
24:00 1018 30.06 847 25.01 -6 21.2 80 -8.9 16.1